createdAt,value
2023-03-01T00:04:00.643Z,53.55
2023-03-01T00:08:22.642Z,56.22
2023-03-01T00:12:44.742Z,52.47
2023-03-01T00:17:07.014Z,60.45
2023-03-01T00:21:30.017Z,57.67
2023-03-01T00:25:52.541Z,56.33
2023-03-01T00:30:14.763Z,57.67
2023-03-01T00:34:37.064Z,54.55
2023-03-01T00:38:59.052Z,57.60
2023-03-01T00:43:22.187Z,61.20
2023-03-01T00:47:44.908Z,55.13
2023-03-01T00:52:06.966Z,56.92
2023-03-01T00:56:30.158Z,60.38
2023-03-01T01:00:53.723Z,55.95
2023-03-01T01:05:15.793Z,56.17
2023-03-01T01:09:37.929Z,57.67
2023-03-01T01:14:00.623Z,58.08
2023-03-01T01:18:24.705Z,54.80
2023-03-01T01:22:46.684Z,52.13
2023-03-01T01:27:08.545Z,54.33
2023-03-01T01:31:31.951Z,54.78
2023-03-01T01:35:53.996Z,55.17
2023-03-01T01:40:16.044Z,56.55
2023-03-01T01:44:38.215Z,53.33
2023-03-01T01:49:11.523Z,56.17
2023-03-01T01:53:33.624Z,64.15
2023-03-01T01:58:02.362Z,50.08
2023-03-01T02:02:24.958Z,51.17
2023-03-01T02:07:11.453Z,56.28
2023-03-01T02:11:34.843Z,58.03
2023-03-01T02:15:57.252Z,61.42
2023-03-01T02:20:45.050Z,54.50
2023-03-01T02:25:53.745Z,54.58
2023-03-01T02:30:16.285Z,58.22
2023-03-01T02:34:40.825Z,56.17
2023-03-01T02:39:07.109Z,61.10
2023-03-01T02:43:32.663Z,60.97
2023-03-01T02:47:58.808Z,59.13
2023-03-01T02:52:37.751Z,62.55
2023-03-01T02:57:00.327Z,59.15
2023-03-01T03:01:37.550Z,60.70
2023-03-01T03:06:01.073Z,57.38
2023-03-01T03:10:33.050Z,56.65
2023-03-01T03:14:55.378Z,64.97
2023-03-01T03:19:21.124Z,75.82
2023-03-01T03:23:43.409Z,63.33
2023-03-01T03:28:10.859Z,63.10
2023-03-01T03:32:33.085Z,72.60
2023-03-01T03:37:00.554Z,63.28
2023-03-01T03:41:22.664Z,59.60
2023-03-01T03:45:49.428Z,61.73
2023-03-01T03:50:13.626Z,56.47
2023-03-01T03:54:35.424Z,63.00
2023-03-01T03:58:57.684Z,64.30
2023-03-01T04:03:21.136Z,65.43
2023-03-01T04:07:44.049Z,106.82
2023-03-01T04:12:06.404Z,58.75
2023-03-01T04:16:29.016Z,60.90
2023-03-01T04:20:53.416Z,57.47
2023-03-01T04:25:15.722Z,73.65
2023-03-01T04:29:37.628Z,64.80
2023-03-01T04:33:59.763Z,58.93
2023-03-01T04:38:22.441Z,57.83
2023-03-01T04:42:44.626Z,58.87
2023-03-01T04:47:07.208Z,62.10
2023-03-01T04:51:29.427Z,63.80
2023-03-01T04:55:51.925Z,61.75
2023-03-01T05:00:22.371Z,62.90
2023-03-01T05:04:44.862Z,59.78
2023-03-01T05:09:07.865Z,58.80
2023-03-01T05:13:30.445Z,59.15
2023-03-01T05:17:53.665Z,63.35
2023-03-01T05:22:15.485Z,62.00
2023-03-01T05:26:41.670Z,62.35
2023-03-01T05:31:03.854Z,56.53
2023-03-01T05:35:25.993Z,59.00
2023-03-01T05:39:50.858Z,62.30
2023-03-01T05:44:13.348Z,63.40
2023-03-01T05:48:35.566Z,61.50
2023-03-01T05:53:03.454Z,65.93
2023-03-01T05:57:25.288Z,70.47
2023-03-01T06:01:47.656Z,53.67
2023-03-01T06:06:09.729Z,60.13
2023-03-01T06:10:32.274Z,60.83
2023-03-01T06:14:54.378Z,64.25
2023-03-01T06:19:16.558Z,54.72
2023-03-01T06:23:38.896Z,61.35
2023-03-01T06:28:01.085Z,67.50
2023-03-01T06:32:23.453Z,61.80
2023-03-01T06:36:45.748Z,66.45
2023-03-01T06:41:08.181Z,57.95
2023-03-01T06:45:30.315Z,53.45
2023-03-01T06:49:52.090Z,36.25
2023-03-01T06:54:15.109Z,30.52
2023-03-01T06:58:37.807Z,23.45
2023-03-01T07:03:03.149Z,26.13
2023-03-01T07:07:25.728Z,25.30
2023-03-01T07:11:48.148Z,23.90
2023-03-01T07:16:10.326Z,23.77
2023-03-01T07:20:32.241Z,23.88
2023-03-01T07:24:54.365Z,22.08
2023-03-01T07:29:16.733Z,22.42
2023-03-01T07:33:39.121Z,24.90
2023-03-01T07:38:00.981Z,20.65
2023-03-01T07:42:22.886Z,23.25
2023-03-01T07:46:45.550Z,22.20
2023-03-01T07:51:08.745Z,24.40
2023-03-01T07:55:30.807Z,21.38
2023-03-01T07:59:52.854Z,21.80
2023-03-01T08:04:15.164Z,24.27
2023-03-01T08:08:38.063Z,23.27
2023-03-01T08:13:00.237Z,23.45
2023-03-01T08:17:22.548Z,22.67
2023-03-01T08:21:44.778Z,25.13
2023-03-01T08:26:16.840Z,24.23
2023-03-01T08:30:38.938Z,24.98
2023-03-01T08:35:01.169Z,23.45
2023-03-01T08:39:23.724Z,24.17
2023-03-01T08:43:45.919Z,24.33
2023-03-01T08:48:08.141Z,22.60
2023-03-01T08:52:31.261Z,23.85
2023-03-01T08:56:53.391Z,25.02
2023-03-01T09:01:18.842Z,25.98
2023-03-01T09:05:40.934Z,27.02
2023-03-01T09:10:03.324Z,24.02
2023-03-01T09:14:25.336Z,24.35
2023-03-01T09:18:54.464Z,28.52
2023-03-01T09:23:16.607Z,25.42
2023-03-01T09:27:38.881Z,20.60
2023-03-01T09:32:01.770Z,25.73
2023-03-01T09:36:26.586Z,25.15
2023-03-01T09:40:49.192Z,27.30
2023-03-01T09:45:45.129Z,23.20
2023-03-01T09:50:18.789Z,25.27
2023-03-01T09:54:41.108Z,24.23
2023-03-01T09:59:51.429Z,24.40
2023-03-01T10:04:41.174Z,22.27
2023-03-01T10:09:23.642Z,24.65
2023-03-01T10:14:00.272Z,24.95
2023-03-01T10:18:29.994Z,26.52
2023-03-01T10:22:53.600Z,25.42
2023-03-01T10:27:25.847Z,24.70
2023-03-01T10:31:54.262Z,25.15
2023-03-01T10:36:16.310Z,24.33
2023-03-01T10:40:58.219Z,23.48
2023-03-01T10:45:38.642Z,31.40
2023-03-01T10:50:19.687Z,26.05
2023-03-01T10:54:42.711Z,27.38
2023-03-01T10:59:06.910Z,28.73
2023-03-01T11:03:34.708Z,27.73
2023-03-01T11:07:59.751Z,26.50
2023-03-01T11:12:22.597Z,26.25
2023-03-01T11:16:48.768Z,27.17
2023-03-01T11:21:11.687Z,25.35
2023-03-01T11:25:56.051Z,24.52
2023-03-01T11:30:34.527Z,27.08
2023-03-01T11:35:26.537Z,27.33
2023-03-01T11:40:33.966Z,26.98
2023-03-01T11:45:09.968Z,25.02
2023-03-01T11:49:53.747Z,27.27
2023-03-01T11:54:41.503Z,25.63
2023-03-01T11:59:18.504Z,28.02
2023-03-01T12:04:11.253Z,28.33
2023-03-01T12:09:08.458Z,29.00
2023-03-01T12:14:02.694Z,31.27
2023-03-01T12:19:00.047Z,30.17
2023-03-01T12:23:38.868Z,39.55
2023-03-01T12:28:28.544Z,33.17
2023-03-01T12:33:11.606Z,36.30
2023-03-01T12:37:52.569Z,37.85
2023-03-01T12:43:02.014Z,34.85
2023-03-01T12:47:41.848Z,46.28
2023-03-01T12:52:20.496Z,37.35
2023-03-01T12:56:53.754Z,34.70
2023-03-01T13:01:53.667Z,39.80
2023-03-01T13:06:47.932Z,40.55
2023-03-01T13:11:24.786Z,36.72
2023-03-01T13:15:48.963Z,38.03
2023-03-01T13:20:20.030Z,38.17
2023-03-01T13:24:43.713Z,35.17
2023-03-01T13:29:05.747Z,37.25
2023-03-01T13:33:41.005Z,36.58
2023-03-01T13:38:38.007Z,40.05
2023-03-01T13:43:35.873Z,34.47
2023-03-01T13:48:11.168Z,43.03
2023-03-01T13:52:45.044Z,34.72
2023-03-01T13:57:07.349Z,39.20
2023-03-01T14:01:37.642Z,39.22
2023-03-01T14:06:15.333Z,36.15
2023-03-01T14:11:26.432Z,38.58
2023-03-01T14:16:08.158Z,35.63
2023-03-01T14:20:41.246Z,33.85
2023-03-01T14:25:22.430Z,30.42
2023-03-01T14:29:45.473Z,37.00
2023-03-01T14:34:07.704Z,30.77
2023-03-01T14:38:45.681Z,34.50
2023-03-01T14:43:19.343Z,31.98
2023-03-01T14:47:43.453Z,35.33
2023-03-01T14:52:20.049Z,33.67
2023-03-01T14:56:48.432Z,48.60
2023-03-01T15:01:17.681Z,32.85
2023-03-01T15:05:41.956Z,31.85
2023-03-01T15:10:07.085Z,29.77
2023-03-01T15:14:52.253Z,31.02
2023-03-01T15:19:20.571Z,33.90
2023-03-01T15:23:42.896Z,26.92
2023-03-01T15:28:04.845Z,31.23
2023-03-01T15:32:34.514Z,30.55
2023-03-01T15:37:00.284Z,31.08
2023-03-01T15:41:47.502Z,28.38
2023-03-01T15:46:26.366Z,28.92
2023-03-01T15:50:58.775Z,28.10
2023-03-01T15:55:24.374Z,32.00
2023-03-01T15:59:46.484Z,30.52
2023-03-01T16:04:13.048Z,28.88
2023-03-01T16:08:35.134Z,31.38
2023-03-01T16:12:57.196Z,30.90
2023-03-01T16:17:19.428Z,31.15
2023-03-01T16:21:41.630Z,29.80
2023-03-01T16:26:03.731Z,28.27
2023-03-01T16:30:25.587Z,27.25
2023-03-01T16:34:50.455Z,30.98
2023-03-01T16:39:12.389Z,31.70
2023-03-01T16:43:34.300Z,28.52
2023-03-01T16:47:56.368Z,33.55
2023-03-01T16:52:18.280Z,32.63
2023-03-01T16:56:40.785Z,37.17
2023-03-01T17:01:07.028Z,33.20
2023-03-01T17:05:29.568Z,34.20
2023-03-01T17:09:51.728Z,32.13
2023-03-01T17:14:13.855Z,34.30
2023-03-01T17:18:36.248Z,40.03
2023-03-01T17:22:58.827Z,36.67
2023-03-01T17:27:20.906Z,33.03
2023-03-01T17:31:43.359Z,36.22
2023-03-01T17:36:06.247Z,32.65
2023-03-01T17:40:28.594Z,36.03
2023-03-01T17:44:51.043Z,33.28
2023-03-01T17:49:13.165Z,39.58
2023-03-01T17:53:37.462Z,33.70
2023-03-01T17:57:59.207Z,35.10
2023-03-01T18:02:21.936Z,36.15
2023-03-01T18:06:43.906Z,37.05
2023-03-01T18:11:06.048Z,37.47
2023-03-01T18:15:29.058Z,38.05
2023-03-01T18:19:51.673Z,36.58
2023-03-01T18:24:13.893Z,38.67
2023-03-01T18:28:37.586Z,39.45
2023-03-01T18:32:59.334Z,35.00
2023-03-01T18:37:21.387Z,39.15
2023-03-01T18:41:43.287Z,48.80
2023-03-01T18:46:05.754Z,41.47
2023-03-01T18:50:28.108Z,36.00
2023-03-01T18:54:49.992Z,37.90
2023-03-01T18:59:11.965Z,34.97
2023-03-01T19:03:38.147Z,42.60
2023-03-01T19:08:00.333Z,40.00
2023-03-01T19:12:22.545Z,45.00
2023-03-01T19:16:44.884Z,41.45
2023-03-01T19:21:08.974Z,41.75
2023-03-01T19:25:32.948Z,51.00
2023-03-01T19:29:54.904Z,41.53
2023-03-01T19:34:17.051Z,42.05
2023-03-01T19:38:40.942Z,37.05
2023-03-01T19:43:03.222Z,49.03
2023-03-01T19:47:25.322Z,41.03
2023-03-01T19:51:47.288Z,42.13
2023-03-01T19:56:10.269Z,41.65
2023-03-01T20:00:34.186Z,42.70
2023-03-01T20:04:57.297Z,48.08
2023-03-01T20:09:21.910Z,47.20
2023-03-01T20:13:44.783Z,49.90
2023-03-01T20:18:06.721Z,49.85
2023-03-01T20:22:28.843Z,51.45
2023-03-01T20:26:51.214Z,51.00
2023-03-01T20:31:16.268Z,50.95
2023-03-01T20:35:42.845Z,49.60
2023-03-01T20:40:06.000Z,57.50
2023-03-01T20:44:27.824Z,54.85
2023-03-01T20:48:53.944Z,52.35
2023-03-01T20:53:16.364Z,60.08
2023-03-01T20:57:38.303Z,65.90
2023-03-01T21:02:00.100Z,66.88
2023-03-01T21:06:22.463Z,61.35
2023-03-01T21:10:49.603Z,64.70
2023-03-01T21:15:23.500Z,69.10
2023-03-01T21:19:50.832Z,64.80
2023-03-01T21:24:13.247Z,60.85
2023-03-01T21:28:37.066Z,60.17
2023-03-01T21:32:59.228Z,62.80
2023-03-01T21:37:26.969Z,62.25
2023-03-01T21:41:50.710Z,66.20
2023-03-01T21:46:20.374Z,71.50
2023-03-01T21:50:42.211Z,63.75
2023-03-01T21:55:05.051Z,61.10
2023-03-01T21:59:28.512Z,65.07
2023-03-01T22:03:51.004Z,56.05
2023-03-01T22:08:13.126Z,66.72
2023-03-01T22:12:35.302Z,63.13
2023-03-01T22:16:57.696Z,60.90
2023-03-01T22:21:20.659Z,64.30
2023-03-01T22:25:43.021Z,58.00
2023-03-01T22:30:11.869Z,66.20
2023-03-01T22:34:35.229Z,68.05
2023-03-01T22:39:02.010Z,62.95
2023-03-01T22:43:23.950Z,68.15
2023-03-01T22:47:46.151Z,58.45
2023-03-01T22:52:08.490Z,71.13
2023-03-01T22:56:34.698Z,63.00
2023-03-01T23:00:56.603Z,63.72
2023-03-01T23:05:18.786Z,63.95
2023-03-01T23:09:40.926Z,60.53
2023-03-01T23:14:03.280Z,62.95
2023-03-01T23:18:25.564Z,58.28
2023-03-01T23:22:47.504Z,59.40
2023-03-01T23:27:10.010Z,57.72
2023-03-01T23:31:32.344Z,62.92
2023-03-01T23:35:54.744Z,57.80
2023-03-01T23:40:17.242Z,55.97
2023-03-01T23:44:40.962Z,57.10
2023-03-01T23:49:03.721Z,59.33
2023-03-01T23:53:26.743Z,53.92
2023-03-01T23:57:48.682Z,51.80
